.
WxDataArchive / Data Records for 2011-12-13
2011-12-12 December 2011 2011-12-14

Data Records for Tuesday, 13 December 2011

Time	Temp	Chill	HIndex	Humid	Dewpt	 Wind 	HiWind	WindDir	Rain 	Barom 
-----	----	-----	------	-----	-----	------	------	-------	-----	----- 
00:00	23.8	23.8	23.8	88	20.8	0	0	---	0.00	30.440 
00:05	23.8	23.8	23.8	89	21.0	0	0	---	0.00	30.440 
00:10	23.9	23.9	23.9	89	21.1	0	0	---	0.00	30.440 
00:15	24.1	24.1	24.1	89	21.3	0	0	---	0.00	30.448 
00:20	24.2	24.2	24.2	89	21.4	0	0	---	0.00	30.448 
00:25	24.4	24.4	24.4	89	21.6	0	0	---	0.00	30.448 
00:30	24.7	24.7	24.7	89	21.9	0	0	---	0.00	30.445 
00:35	24.8	24.8	24.8	90	22.3	0	0	---	0.00	30.445 
00:40	25.1	25.1	25.1	90	22.6	0	0	---	0.00	30.445 
00:45	25.3	25.3	25.3	90	22.8	0	0	---	0.00	30.444 
00:50	25.4	25.4	25.4	90	22.9	0	0	---	0.00	30.444 
00:55	25.4	25.4	25.4	90	22.9	0	0	---	0.00	30.444 
01:00	25.6	25.6	25.6	90	23.1	0	0	---	0.00	30.441 
01:05	25.7	25.7	25.7	90	23.2	0	0	---	0.00	30.441 
01:10	25.8	25.8	25.8	90	23.3	0	0	---	0.00	30.441 
01:15	25.8	25.8	25.8	90	23.3	0	0	---	0.00	30.434 
01:20	25.8	25.8	25.8	90	23.3	0	0	---	0.00	30.434 
01:25	25.8	25.8	25.8	90	23.3	0	0	---	0.00	30.434 
01:30	25.7	25.7	25.7	90	23.2	0	0	---	0.00	30.433 
01:35	25.7	25.7	25.7	90	23.2	0	0	---	0.00	30.433 
01:40	25.6	25.6	25.6	89	22.8	0	0	---	0.00	30.433 
01:45	25.4	25.4	25.4	89	22.6	0	0	---	0.00	30.436 
01:50	25.3	25.3	25.3	89	22.5	0	0	---	0.00	30.436 
01:55	25.1	25.1	25.1	89	22.3	0	0	---	0.00	30.436 
02:00	25.0	25.0	25.0	89	22.2	0	0	---	0.00	30.438 
02:05	24.8	24.8	24.8	89	22.0	0	0	---	0.00	30.438 
02:10	24.8	24.8	24.8	89	22.0	0	0	---	0.00	30.438 
02:15	24.7	24.7	24.7	89	21.9	0	0	---	0.00	30.448 
02:20	24.7	24.7	24.7	89	21.9	0	0	---	0.00	30.448 
02:25	24.5	24.5	24.5	89	21.7	0	0	---	0.00	30.448 
02:30	24.4	24.4	24.4	89	21.6	0	0	---	0.00	30.457 
02:35	24.2	24.2	24.2	89	21.4	0	0	---	0.00	30.457 
02:40	24.1	24.1	24.1	89	21.3	0	0	---	0.00	30.457 
02:45	23.9	23.9	23.9	89	21.1	0	0	---	0.00	30.456 
02:50	23.8	23.8	23.8	89	21.0	0	0	---	0.00	30.456 
02:55	23.6	23.6	23.6	89	20.8	0	0	---	0.00	30.456 
03:00	23.5	23.5	23.5	89	20.7	0	0	---	0.00	30.452 
03:05	23.3	23.3	23.3	89	20.5	0	0	---	0.00	30.452 
03:10	23.2	23.2	23.2	89	20.4	0	0	---	0.00	30.452 
03:15	23.2	23.2	23.2	89	20.4	0	0	---	0.00	30.451 
03:20	23.2	23.2	23.2	89	20.4	0	0	---	0.00	30.451 
03:25	23.3	23.3	23.3	90	20.8	0	0	---	0.00	30.451 
03:30	23.5	23.5	23.5	90	21.0	0	0	---	0.00	30.444 
03:35	23.6	23.6	23.6	90	21.1	0	0	---	0.00	30.444 
03:40	23.9	23.9	23.9	90	21.4	0	0	---	0.00	30.444 
03:45	24.1	24.1	24.1	90	21.6	0	0	---	0.00	30.446 
03:50	24.2	24.2	24.2	90	21.7	0	0	---	0.00	30.446 
03:55	24.2	24.2	24.2	90	21.7	0	0	---	0.00	30.446 
04:00	24.4	24.4	24.4	90	21.9	0	0	---	0.00	30.444 
04:05	24.5	24.5	24.5	90	22.0	0	0	---	0.00	30.444 
04:10	24.7	24.7	24.7	90	22.2	0	0	---	0.00	30.444 
04:15	24.7	24.7	24.7	90	22.2	0	0	---	0.00	30.445 
04:20	25.0	25.0	25.0	91	22.8	0	0	---	0.00	30.445 
04:25	25.1	25.1	25.1	91	22.9	0	0	---	0.00	30.445 
04:30	25.3	25.3	25.3	91	23.0	0	0	---	0.00	30.448 
04:35	25.3	25.3	25.3	91	23.0	0	0	---	0.00	30.448 
04:40	25.4	25.4	25.4	91	23.1	0	0	---	0.00	30.448 
04:45	25.6	25.6	25.6	91	23.3	0	0	---	0.00	30.451 
04:50	25.7	25.7	25.7	91	23.4	0	0	---	0.00	30.451 
04:55	25.8	25.8	25.8	91	23.5	0	0	---	0.00	30.451 
05:00	26.1	26.1	26.1	91	23.8	0	0	---	0.00	30.447 
05:05	26.3	26.3	26.3	91	24.0	0	0	---	0.00	30.447 
05:10	26.6	26.6	26.6	91	24.3	0	0	---	0.00	30.447 
05:15	26.6	26.6	26.6	91	24.3	0	0	---	0.00	30.449 
05:20	26.7	26.7	26.7	90	24.2	0	0	---	0.00	30.449 
05:25	26.7	26.7	26.7	90	24.2	0	0	---	0.00	30.449 
05:30	26.6	26.6	26.6	90	24.1	0	0	---	0.00	30.452 
05:35	26.6	26.6	26.6	90	24.1	0	0	---	0.00	30.452 
05:40	26.4	26.4	26.4	90	23.9	0	0	---	0.00	30.452 
05:45	26.4	26.4	26.4	90	23.9	0	0	---	0.00	30.452 
05:50	26.3	26.3	26.3	90	23.8	0	0	---	0.00	30.452 
05:55	26.3	26.3	26.3	90	23.8	0	0	---	0.00	30.452 
06:00	26.3	26.3	26.3	90	23.8	0	0	---	0.00	30.456 
06:05	26.3	26.3	26.3	90	23.8	0	0	---	0.00	30.456 
06:10	26.4	26.4	26.4	90	23.9	0	0	---	0.00	30.456 
06:15	26.4	26.4	26.4	90	23.9	0	0	---	0.00	30.456 
06:20	26.6	26.6	26.6	90	24.1	0	0	---	0.00	30.456 
06:25	26.7	26.7	26.7	90	24.2	0	0	---	0.00	30.456 
06:30	26.9	26.9	26.9	90	24.4	0	0	---	0.00	30.456 
06:35	27.0	27.0	27.0	91	24.7	0	0	---	0.00	30.456 
06:40	27.2	27.2	27.2	91	24.9	0	0	---	0.00	30.456 
06:45	27.2	27.2	27.2	91	24.9	0	0	---	0.00	30.459 
06:50	27.3	27.3	27.3	91	25.0	0	0	---	0.00	30.459 
06:55	27.5	27.5	27.5	91	25.2	0	0	---	0.00	30.459 
07:00	27.6	27.6	27.6	91	25.3	0	0	---	0.00	30.462 
07:05	27.6	27.6	27.6	91	25.3	0	0	---	0.00	30.462 
07:10	27.8	27.8	27.8	91	25.5	0	0	---	0.00	30.462 
07:15	27.9	27.9	27.9	91	25.6	0	0	---	0.00	30.462 
07:20	28.1	28.1	28.1	90	25.6	0	0	---	0.00	30.462 
07:25	28.2	28.2	28.2	91	25.9	0	1	68	0.00	30.462 
07:30	28.4	28.4	28.4	90	25.8	0	0	---	0.00	30.452 
07:35	28.5	28.5	28.5	90	25.9	0	0	---	0.00	30.452 
07:40	28.5	28.5	28.5	90	25.9	0	0	---	0.00	30.452 
07:45	28.7	28.7	28.7	90	26.1	0	0	---	0.00	30.444 
07:50	28.7	28.7	28.7	90	26.1	0	1	68	0.00	30.444 
07:55	28.8	28.8	28.8	89	26.0	0	1	68	0.00	30.444 
08:00	29.0	29.0	29.0	89	26.2	0	0	---	0.00	30.443 
08:05	29.0	29.0	29.0	89	26.2	0	0	---	0.00	30.443 
08:10	29.1	29.1	29.1	89	26.3	0	0	---	0.00	30.443 
08:15	29.1	29.1	29.1	88	26.0	0	0	---	0.00	30.456 
08:20	29.3	29.3	29.3	88	26.2	0	0	---	0.00	30.456 
08:25	29.3	29.3	29.3	88	26.2	0	0	---	0.00	30.456 
08:30	29.4	29.4	29.4	88	26.3	0	0	---	0.00	30.458 
08:35	29.5	29.5	29.5	88	26.4	0	1	68	0.00	30.458 
08:40	29.7	29.7	29.7	88	26.6	0	1	68	0.00	30.458 
08:45	29.8	29.8	29.8	87	26.4	0	0	---	0.00	30.461 
08:50	29.8	29.8	29.8	87	26.4	0	0	---	0.00	30.461 
08:55	30.0	30.0	30.0	87	26.6	0	0	---	0.00	30.461 
09:00	30.1	30.1	30.1	87	26.7	0	0	---	0.00	30.464 
09:05	30.3	30.3	30.3	86	26.6	0	0	---	0.00	30.464 
09:10	30.6	30.6	30.6	86	26.9	0	0	---	0.00	30.464 
09:15	30.7	30.7	30.7	86	27.0	0	0	---	0.00	30.466 
09:20	30.9	30.9	30.9	86	27.2	0	0	---	0.00	30.466 
09:25	31.0	31.0	31.0	85	27.0	0	0	---	0.00	30.466 
09:30	31.2	31.2	31.2	85	27.2	0	0	---	0.00	30.471 
09:35	31.3	31.3	31.3	85	27.3	0	0	---	0.00	30.471 
09:40	31.5	31.5	31.5	85	27.5	0	0	---	0.00	30.471 
09:45	31.6	31.6	31.6	85	27.6	0	0	---	0.00	30.473 
09:50	31.8	31.8	31.8	85	27.8	0	0	---	0.00	30.473 
09:55	31.9	31.9	31.9	84	27.6	0	0	---	0.00	30.473 
10:00	32.1	32.1	32.1	84	27.8	0	0	---	0.00	30.473 
10:05	32.2	32.2	32.2	84	27.9	0	1	68	0.00	30.473 
10:10	32.5	32.5	32.5	83	27.9	0	0	---	0.00	30.473 
10:15	32.7	32.7	32.7	83	28.1	0	0	---	0.00	30.473 
10:20	32.9	32.9	32.9	83	28.3	0	0	---	0.00	30.473 
10:25	33.2	33.2	33.2	83	28.6	0	0	---	0.00	30.473 
10:30	33.5	33.5	33.5	83	28.9	0	0	---	0.00	30.475 
10:35	33.8	33.8	33.8	83	29.2	0	0	---	0.00	30.475 
10:40	34.1	34.1	34.1	83	29.5	0	0	---	0.00	30.475 
10:45	34.3	34.3	34.3	83	29.7	0	0	---	0.00	30.483 
10:50	34.4	34.4	34.4	83	29.8	0	0	---	0.00	30.483 
10:55	34.6	34.6	34.6	83	30.0	0	0	---	0.00	30.483 
11:00	34.7	34.7	34.7	84	30.4	0	0	---	0.00	30.484 
11:05	34.7	34.7	34.7	84	30.4	0	0	---	0.00	30.484 
11:10	34.9	34.9	34.9	84	30.6	0	0	---	0.00	30.484 
11:15	35.0	35.0	35.0	84	30.7	0	1	45	0.00	30.483 
11:20	35.2	35.2	35.2	83	30.6	0	0	---	0.00	30.483 
11:25	35.3	35.3	35.3	83	30.7	0	0	---	0.00	30.483 
11:30	35.5	35.5	35.5	83	30.9	0	1	45	0.00	30.478 
11:35	35.5	35.5	35.5	82	30.6	0	1	45	0.00	30.478 
11:40	35.6	35.6	35.6	82	30.7	0	2	45	0.00	30.478 
11:45	35.8	35.8	35.8	83	31.2	0	1	45	0.00	30.468 
11:50	35.9	35.9	35.9	83	31.2	0	1	45	0.00	30.468 
11:55	36.0	36.0	36.0	83	31.3	0	0	---	0.00	30.468 
12:00	36.2	36.2	36.2	83	31.5	0	2	45	0.00	30.461 
12:05	36.5	36.5	36.5	83	31.8	0	0	---	0.00	30.461 
12:10	36.6	36.6	36.6	83	31.9	0	1	45	0.00	30.461 
12:15	36.8	36.8	36.8	83	32.1	0	1	45	0.00	30.450 
12:20	37.0	37.0	37.0	83	32.3	0	1	45	0.00	30.450 
12:25	37.2	37.2	37.2	82	32.2	0	2	45	0.00	30.450 
12:30	37.5	37.5	37.5	83	32.8	0	1	45	0.00	30.434 
12:35	37.9	37.9	37.9	83	33.2	0	2	45	0.00	30.434 
12:40	38.3	38.3	38.3	82	33.3	0	1	45	0.00	30.434 
12:45	38.6	38.6	38.6	81	33.3	0	1	45	0.00	30.435 
12:50	38.8	38.8	38.8	80	33.2	0	3	248	0.00	30.435 
12:55	38.9	38.9	38.9	78	32.6	0	2	90	0.00	30.435 
13:00	39.1	39.1	39.1	78	32.8	0	1	90	0.00	30.429 
13:05	39.2	39.2	39.2	77	32.6	0	1	90	0.00	30.429 
13:10	39.3	39.3	39.3	76	32.4	0	1	90	0.00	30.429 
13:15	39.5	39.5	39.5	76	32.6	0	0	---	0.00	30.417 
13:20	39.6	39.6	39.6	76	32.7	1	2	90	0.00	30.417 
13:25	39.8	39.8	39.8	76	32.9	0	1	90	0.00	30.417 
13:30	40.1	40.1	40.1	75	32.8	0	1	90	0.00	30.405 
13:35	40.2	40.2	40.2	75	32.9	0	1	90	0.00	30.405 
13:40	40.5	40.5	40.5	75	33.2	0	1	90	0.00	30.405 
13:45	40.8	40.8	40.8	75	33.5	0	1	90	0.00	30.396 
13:50	41.1	41.1	41.1	74	33.5	0	1	90	0.00	30.396 
13:55	41.2	41.2	41.2	74	33.6	0	1	90	0.00	30.396 
14:00	41.3	41.3	41.3	73	33.3	0	2	90	0.00	30.400 
14:05	41.2	41.2	41.2	72	32.9	0	2	112	0.00	30.400 
14:10	41.2	41.2	41.2	73	33.2	0	1	90	0.00	30.400 
14:15	41.2	41.2	41.2	73	33.2	0	1	90	0.00	30.403 
14:20	41.2	41.2	41.2	73	33.2	0	1	112	0.00	30.403 
14:25	41.1	41.1	41.1	73	33.1	0	0	---	0.00	30.403 
14:30	41.2	41.2	41.2	73	33.2	0	0	---	0.00	30.409 
14:35	41.2	41.2	41.2	74	33.6	0	0	---	0.00	30.409 
14:40	41.2	41.2	41.2	74	33.6	0	1	112	0.00	30.409 
14:45	41.2	41.2	41.2	74	33.6	0	1	112	0.00	30.411 
14:50	41.2	41.2	41.2	74	33.6	0	2	112	0.00	30.411 
14:55	41.2	41.2	41.2	73	33.2	0	1	112	0.00	30.411 
15:00	41.2	41.2	41.2	73	33.2	0	1	112	0.00	30.406 
15:05	41.2	41.2	41.2	73	33.2	0	1	112	0.00	30.406 
15:10	41.2	41.2	41.2	73	33.2	0	1	112	0.00	30.406 
15:15	41.2	41.2	41.2	73	33.2	0	1	112	0.00	30.401 
15:20	41.1	41.1	41.1	73	33.1	0	1	112	0.00	30.401 
15:25	41.1	41.1	41.1	74	33.5	0	0	---	0.00	30.401 
15:30	41.1	41.1	41.1	74	33.5	0	0	---	0.00	30.401 
15:35	40.9	40.9	40.9	75	33.6	0	0	---	0.00	30.401 
15:40	40.9	40.9	40.9	75	33.6	0	0	---	0.00	30.401 
15:45	40.9	40.9	40.9	75	33.6	0	0	---	0.00	30.391 
15:50	40.8	40.8	40.8	76	33.8	0	0	---	0.00	30.391 
15:55	40.8	40.8	40.8	75	33.5	0	1	112	0.00	30.391 
16:00	40.8	40.8	40.8	75	33.5	0	0	---	0.00	30.390 
16:05	40.8	40.8	40.8	76	33.8	0	1	112	0.00	30.390 
16:10	40.8	40.8	40.8	76	33.8	0	1	112	0.00	30.390 
16:15	40.8	40.8	40.8	76	33.8	0	1	112	0.00	30.383 
16:20	40.6	40.6	40.6	76	33.6	0	1	112	0.00	30.383 
16:25	40.5	40.5	40.5	76	33.5	0	0	---	0.00	30.383 
16:30	40.3	40.3	40.3	77	33.7	0	1	112	0.00	30.393 
16:35	40.3	40.3	40.3	77	33.7	0	1	112	0.00	30.393 
16:40	40.2	40.2	40.2	77	33.6	0	0	---	0.00	30.393 
16:45	40.1	40.1	40.1	77	33.5	0	0	---	0.00	30.399 
16:50	39.9	39.9	39.9	78	33.6	0	0	---	0.00	30.399 
16:55	39.9	39.9	39.9	78	33.6	0	0	---	0.00	30.399 
17:00	39.8	39.8	39.8	79	33.8	0	0	---	0.00	30.399 
17:05	39.6	39.6	39.6	79	33.6	0	1	112	0.00	30.399 
17:10	39.6	39.6	39.6	79	33.6	0	1	112	0.00	30.399 
17:15	39.5	39.5	39.5	79	33.5	0	1	112	0.00	30.381 
17:20	39.5	39.5	39.5	79	33.5	0	1	112	0.00	30.381 
17:25	39.3	39.3	39.3	80	33.7	0	1	112	0.00	30.381 
17:30	39.2	39.2	39.2	80	33.6	0	1	112	0.00	30.375 
17:35	39.2	39.2	39.2	81	33.9	0	1	112	0.00	30.375 
17:40	39.2	39.2	39.2	81	33.9	0	1	112	0.00	30.375 
17:45	39.1	39.1	39.1	81	33.8	0	1	112	0.00	30.383 
17:50	39.2	39.2	39.2	81	33.9	0	1	112	0.00	30.383 
17:55	39.1	39.1	39.1	81	33.8	0	0	---	0.00	30.383 
18:00	39.1	39.1	39.1	81	33.8	0	0	---	0.00	30.385 
18:05	38.9	38.9	38.9	82	33.9	0	0	---	0.00	30.385 
18:10	38.9	38.9	38.9	82	33.9	0	0	---	0.00	30.385 
18:15	38.9	38.9	38.9	82	33.9	0	1	112	0.00	30.381 
18:20	38.8	38.8	38.8	83	34.1	0	0	---	0.00	30.381 
18:25	38.8	38.8	38.8	83	34.1	0	0	---	0.00	30.381 
18:30	38.8	38.8	38.8	83	34.1	0	0	---	0.00	30.384 
18:35	38.8	38.8	38.8	83	34.1	0	1	112	0.00	30.384 
18:40	38.8	38.8	38.8	84	34.4	0	1	112	0.00	30.384 
18:45	38.8	38.8	38.8	84	34.4	0	0	---	0.00	30.385 
18:50	38.8	38.8	38.8	84	34.4	0	0	---	0.00	30.385 
18:55	38.6	38.6	38.6	84	34.2	0	0	---	0.00	30.385 
19:00	38.5	38.5	38.5	84	34.1	0	0	---	0.00	30.386 
19:05	38.5	38.5	38.5	84	34.1	0	0	---	0.00	30.386 
19:10	38.3	38.3	38.3	84	33.9	0	0	---	0.00	30.386 
19:15	38.3	38.3	38.3	84	33.9	0	0	---	0.00	30.390 
19:20	38.3	38.3	38.3	85	34.2	0	1	112	0.00	30.390 
19:25	38.3	38.3	38.3	85	34.2	0	1	112	0.00	30.390 
19:30	38.5	38.5	38.5	85	34.4	0	1	112	0.00	30.382 
19:35	38.6	38.6	38.6	85	34.5	0	1	112	0.00	30.382 
19:40	38.6	38.6	38.6	85	34.5	0	0	---	0.00	30.382 
19:45	38.8	38.8	38.8	85	34.7	0	1	112	0.00	30.383 
19:50	38.8	38.8	38.8	85	34.7	0	0	---	0.00	30.383 
19:55	38.8	38.8	38.8	85	34.7	0	0	---	0.00	30.383 
20:00	38.8	38.8	38.8	85	34.7	0	1	112	0.00	30.378 
20:05	38.8	38.8	38.8	85	34.7	0	2	112	0.00	30.378 
20:10	38.6	38.6	38.6	85	34.5	0	1	112	0.00	30.378 
20:15	38.6	38.6	38.6	85	34.5	0	1	112	0.00	30.366 
20:20	38.8	38.8	38.8	85	34.7	0	0	---	0.00	30.366 
20:25	38.6	38.6	38.6	85	34.5	0	0	---	0.00	30.366 
20:30	38.6	38.6	38.6	85	34.5	0	0	---	0.00	30.381 
20:35	38.6	38.6	38.6	85	34.5	0	0	---	0.00	30.381 
20:40	38.6	38.6	38.6	85	34.5	0	0	---	0.00	30.381 
20:45	38.6	38.6	38.6	85	34.5	0	0	---	0.00	30.385 
20:50	38.6	38.6	38.6	86	34.8	0	0	---	0.00	30.385 
20:55	38.6	38.6	38.6	86	34.8	0	0	---	0.00	30.385 
21:00	38.8	38.8	38.8	86	35.0	0	0	---	0.00	30.367 
21:05	38.8	38.8	38.8	86	35.0	0	0	---	0.00	30.367 
21:10	38.8	38.8	38.8	86	35.0	0	0	---	0.00	30.367 
21:15	38.6	38.6	38.6	86	34.8	0	0	---	0.00	30.365 
21:20	38.6	38.6	38.6	86	34.8	0	1	112	0.00	30.365 
21:25	38.8	38.8	38.8	86	35.0	0	0	---	0.00	30.365 
21:30	38.8	38.8	38.8	86	35.0	0	1	112	0.00	30.355 
21:35	38.9	38.9	38.9	86	35.1	0	0	---	0.00	30.355 
21:40	38.9	38.9	38.9	86	35.1	0	2	112	0.00	30.355 
21:45	39.1	39.1	39.1	86	35.3	0	1	112	0.00	30.350 
21:50	39.1	39.1	39.1	86	35.3	0	1	112	0.00	30.350 
21:55	39.1	39.1	39.1	86	35.3	0	1	112	0.00	30.350 
22:00	39.1	39.1	39.1	86	35.3	0	1	112	0.00	30.356 
22:05	39.1	39.1	39.1	86	35.3	0	1	112	0.00	30.356 
22:10	39.1	39.1	39.1	86	35.3	0	0	---	0.00	30.356 
22:15	39.1	39.1	39.1	87	35.6	0	1	112	0.00	30.350 
22:20	39.1	39.1	39.1	87	35.6	0	0	---	0.00	30.350 
22:25	39.1	39.1	39.1	87	35.6	0	0	---	0.00	30.350 
22:30	39.1	39.1	39.1	87	35.6	0	1	112	0.00	30.343 
22:35	39.1	39.1	39.1	87	35.6	0	1	112	0.00	30.343 
22:40	39.1	39.1	39.1	87	35.6	0	1	112	0.00	30.343 
22:45	39.1	39.1	39.1	87	35.6	0	1	112	0.00	30.344 
22:50	39.1	39.1	39.1	87	35.6	0	0	---	0.00	30.344 
22:55	39.1	39.1	39.1	87	35.6	0	0	---	0.00	30.344 
23:00	39.1	39.1	39.1	87	35.6	0	0	---	0.00	30.341 
23:05	39.1	39.1	39.1	87	35.6	0	0	---	0.00	30.341 
23:10	39.1	39.1	39.1	88	35.9	0	0	---	0.00	30.341 
23:15	39.1	39.1	39.1	88	35.9	0	0	---	0.00	30.338 
23:20	39.1	39.1	39.1	88	35.9	0	0	---	0.00	30.338 
23:25	39.1	39.1	39.1	88	35.9	0	0	---	0.00	30.338 
23:30	39.1	39.1	39.1	88	35.9	0	1	112	0.00	30.343 
23:35	38.9	38.9	38.9	88	35.7	0	0	---	0.00	30.343 
23:40	38.9	38.9	38.9	88	35.7	0	1	112	0.00	30.343 
23:45	39.1	39.1	39.1	89	36.1	0	1	112	0.00	30.337 
23:50	39.1	39.1	39.1	89	36.1	0	1	112	0.00	30.337 
23:55	38.9	38.9	38.9	89	35.9	0	0	---	0.00	30.337 

CoCoRaHS
IN-AL-39
A2 Web Hosting
Creative Commons License
GoDaddy
search engine by freefind advanced

loaded 2018-11-17 22:53:24 • last modified 2010-11-18 10:43:29
Privacy PolicyDisclaimer
• wx.awcolley.com is powered by PmWiki v.2002016 •
• all content (unless otherwise noted) © 2018 A W Colley